sensor_id;sensor_type;location;lat;lon;timestamp;P1;P2;P0
80396;PMS5003;69721;55.894;-3.052;2024-03-06T00:00:35;20;18;
80396;PMS5003;69721;55.894;-3.052;2024-03-06T00:03:00;21;20;
80396;PMS5003;69721;55.894;-3.052;2024-03-06T00:05:26;25;20;
80396;PMS5003;69721;55.894;-3.052;2024-03-06T00:07:51;25;22;
80396;PMS5003;69721;55.894;-3.052;2024-03-06T00:10:17;28;22;
80396;PMS5003;69721;55.894;-3.052;2024-03-06T00:12:42;19;19;
80396;PMS5003;69721;55.894;-3.052;2024-03-06T00:15:08;19;17;
80396;PMS5003;69721;55.894;-3.052;2024-03-06T00:17:33;24;21;
80396;PMS5003;69721;55.894;-3.052;2024-03-06T00:19:59;21;17;
80396;PMS5003;69721;55.894;-3.052;2024-03-06T00:22:24;21;21;
80396;PMS5003;69721;55.894;-3.052;2024-03-06T00:24:49;23;20;
80396;PMS5003;69721;55.894;-3.052;2024-03-06T00:27:15;17;16;
80396;PMS5003;69721;55.894;-3.052;2024-03-06T00:29:41;22;21;
80396;PMS5003;69721;55.894;-3.052;2024-03-06T00:32:06;22;20;
80396;PMS5003;69721;55.894;-3.052;2024-03-06T00:34:32;22;20;
80396;PMS5003;69721;55.894;-3.052;2024-03-06T00:36:58;19;19;
80396;PMS5003;69721;55.894;-3.052;2024-03-06T00:39:24;27;21;
80396;PMS5003;69721;55.894;-3.052;2024-03-06T00:41:49;30;25;
80396;PMS5003;69721;55.894;-3.052;2024-03-06T00:44:14;25;20;
80396;PMS5003;69721;55.894;-3.052;2024-03-06T00:46:39;25;20;
80396;PMS5003;69721;55.894;-3.052;2024-03-06T00:49:05;23;23;
80396;PMS5003;69721;55.894;-3.052;2024-03-06T00:51:35;6;6;
80396;PMS5003;69721;55.894;-3.052;2024-03-06T00:54:00;31;23;
80396;PMS5003;69721;55.894;-3.052;2024-03-06T00:56:25;34;26;
80396;PMS5003;69721;55.894;-3.052;2024-03-06T00:58:52;23;23;
80396;PMS5003;69721;55.894;-3.052;2024-03-06T01:01:16;36;25;
80396;PMS5003;69721;55.894;-3.052;2024-03-06T01:03:42;32;29;
80396;PMS5003;69721;55.894;-3.052;2024-03-06T01:06:08;28;25;
80396;PMS5003;69721;55.894;-3.052;2024-03-06T01:08:34;31;27;
80396;PMS5003;69721;55.894;-3.052;2024-03-06T01:11:00;28;26;
80396;PMS5003;69721;55.894;-3.052;2024-03-06T01:13:25;34;30;
80396;PMS5003;69721;55.894;-3.052;2024-03-06T01:15:51;26;23;
80396;PMS5003;69721;55.894;-3.052;2024-03-06T01:18:16;26;24;
80396;PMS5003;69721;55.894;-3.052;2024-03-06T01:20:42;29;24;
80396;PMS5003;69721;55.894;-3.052;2024-03-06T01:23:07;30;26;
80396;PMS5003;69721;55.894;-3.052;2024-03-06T01:25:33;27;21;
80396;PMS5003;69721;55.894;-3.052;2024-03-06T01:27:58;30;24;
80396;PMS5003;69721;55.894;-3.052;2024-03-06T01:30:24;32;30;
80396;PMS5003;69721;55.894;-3.052;2024-03-06T01:32:49;26;24;
80396;PMS5003;69721;55.894;-3.052;2024-03-06T01:35:16;33;26;
80396;PMS5003;69721;55.894;-3.052;2024-03-06T01:37:40;31;29;
80396;PMS5003;69721;55.894;-3.052;2024-03-06T01:40:07;29;22;
80396;PMS5003;69721;55.894;-3.052;2024-03-06T01:42:32;31;26;
80396;PMS5003;69721;55.894;-3.052;2024-03-06T01:44:57;26;23;
80396;PMS5003;69721;55.894;-3.052;2024-03-06T01:47:23;36;31;
80396;PMS5003;69721;55.894;-3.052;2024-03-06T01:49:48;27;23;
80396;PMS5003;69721;55.894;-3.052;2024-03-06T01:52:14;31;24;
80396;PMS5003;69721;55.894;-3.052;2024-03-06T01:54:39;26;20;
80396;PMS5003;69721;55.894;-3.052;2024-03-06T01:57:05;34;30;
80396;PMS5003;69721;55.894;-3.052;2024-03-06T01:59:30;27;25;
80396;PMS5003;69721;55.894;-3.052;2024-03-06T02:01:56;29;27;
80396;PMS5003;69721;55.894;-3.052;2024-03-06T02:04:22;24;23;
80396;PMS5003;69721;55.894;-3.052;2024-03-06T02:06:52;26;24;
80396;PMS5003;69721;55.894;-3.052;2024-03-06T02:09:12;29;29;
80396;PMS5003;69721;55.894;-3.052;2024-03-06T02:11:37;26;25;
80396;PMS5003;69721;55.894;-3.052;2024-03-06T02:14:03;36;33;
80396;PMS5003;69721;55.894;-3.052;2024-03-06T02:16:28;35;28;
80396;PMS5003;69721;55.894;-3.052;2024-03-06T02:18:54;22;18;
80396;PMS5003;69721;55.894;-3.052;2024-03-06T02:21:20;22;20;
80396;PMS5003;69721;55.894;-3.052;2024-03-06T02:23:45;33;28;
80396;PMS5003;69721;55.894;-3.052;2024-03-06T02:26:10;25;23;
80396;PMS5003;69721;55.894;-3.052;2024-03-06T02:28:35;43;32;
80396;PMS5003;69721;55.894;-3.052;2024-03-06T02:31:00;28;27;
80396;PMS5003;69721;55.894;-3.052;2024-03-06T02:33:26;33;30;
80396;PMS5003;69721;55.894;-3.052;2024-03-06T02:35:52;23;21;
80396;PMS5003;69721;55.894;-3.052;2024-03-06T02:38:17;26;24;
80396;PMS5003;69721;55.894;-3.052;2024-03-06T02:40:43;26;24;
80396;PMS5003;69721;55.894;-3.052;2024-03-06T02:43:08;25;21;
80396;PMS5003;69721;55.894;-3.052;2024-03-06T02:45:33;28;28;
80396;PMS5003;69721;55.894;-3.052;2024-03-06T02:47:59;30;26;
80396;PMS5003;69721;55.894;-3.052;2024-03-06T02:50:24;25;23;
80396;PMS5003;69721;55.894;-3.052;2024-03-06T02:52:49;22;22;
80396;PMS5003;69721;55.894;-3.052;2024-03-06T02:55:15;29;26;
80396;PMS5003;69721;55.894;-3.052;2024-03-06T02:57:41;35;29;
80396;PMS5003;69721;55.894;-3.052;2024-03-06T03:00:07;24;23;
80396;PMS5003;69721;55.894;-3.052;2024-03-06T03:02:32;29;26;
80396;PMS5003;69721;55.894;-3.052;2024-03-06T03:04:57;33;29;
80396;PMS5003;69721;55.894;-3.052;2024-03-06T03:07:23;27;24;
80396;PMS5003;69721;55.894;-3.052;2024-03-06T03:09:48;35;30;
80396;PMS5003;69721;55.894;-3.052;2024-03-06T03:12:13;23;23;
80396;PMS5003;69721;55.894;-3.052;2024-03-06T03:14:39;26;22;
80396;PMS5003;69721;55.894;-3.052;2024-03-06T03:17:05;28;24;
80396;PMS5003;69721;55.894;-3.052;2024-03-06T03:19:30;37;30;
80396;PMS5003;69721;55.894;-3.052;2024-03-06T03:21:55;36;29;
80396;PMS5003;69721;55.894;-3.052;2024-03-06T03:24:20;34;31;
80396;PMS5003;69721;55.894;-3.052;2024-03-06T03:26:46;31;27;
80396;PMS5003;69721;55.894;-3.052;2024-03-06T03:29:11;28;26;
80396;PMS5003;69721;55.894;-3.052;2024-03-06T03:31:37;26;25;
80396;PMS5003;69721;55.894;-3.052;2024-03-06T03:34:03;29;24;
80396;PMS5003;69721;55.894;-3.052;2024-03-06T03:36:28;29;24;
80396;PMS5003;69721;55.894;-3.052;2024-03-06T03:41:21;28;21;
80396;PMS5003;69721;55.894;-3.052;2024-03-06T03:43:46;21;19;
80396;PMS5003;69721;55.894;-3.052;2024-03-06T03:46:12;30;26;
80396;PMS5003;69721;55.894;-3.052;2024-03-06T03:48:37;31;26;
80396;PMS5003;69721;55.894;-3.052;2024-03-06T03:51:04;24;21;
80396;PMS5003;69721;55.894;-3.052;2024-03-06T03:53:29;24;20;
80396;PMS5003;69721;55.894;-3.052;2024-03-06T03:55:54;25;25;
80396;PMS5003;69721;55.894;-3.052;2024-03-06T03:58:20;21;19;
80396;PMS5003;69721;55.894;-3.052;2024-03-06T04:00:46;27;23;
80396;PMS5003;69721;55.894;-3.052;2024-03-06T04:03:11;27;20;
80396;PMS5003;69721;55.894;-3.052;2024-03-06T04:05:36;24;18;
80396;PMS5003;69721;55.894;-3.052;2024-03-06T04:08:02;30;26;
80396;PMS5003;69721;55.894;-3.052;2024-03-06T04:10:28;24;22;
80396;PMS5003;69721;55.894;-3.052;2024-03-06T04:12:54;23;18;
80396;PMS5003;69721;55.894;-3.052;2024-03-06T04:15:19;22;22;
80396;PMS5003;69721;55.894;-3.052;2024-03-06T04:17:45;23;20;
80396;PMS5003;69721;55.894;-3.052;2024-03-06T04:20:10;28;21;
80396;PMS5003;69721;55.894;-3.052;2024-03-06T04:22:35;26;20;
80396;PMS5003;69721;55.894;-3.052;2024-03-06T04:25:01;24;18;
80396;PMS5003;69721;55.894;-3.052;2024-03-06T04:27:26;29;25;
80396;PMS5003;69721;55.894;-3.052;2024-03-06T04:29:52;27;24;
80396;PMS5003;69721;55.894;-3.052;2024-03-06T04:32:17;31;27;
80396;PMS5003;69721;55.894;-3.052;2024-03-06T04:34:43;27;19;
80396;PMS5003;69721;55.894;-3.052;2024-03-06T04:37:09;20;18;
80396;PMS5003;69721;55.894;-3.052;2024-03-06T04:39:34;22;20;
80396;PMS5003;69721;55.894;-3.052;2024-03-06T04:42:01;21;17;
80396;PMS5003;69721;55.894;-3.052;2024-03-06T04:44:27;21;19;
80396;PMS5003;69721;55.894;-3.052;2024-03-06T04:46:51;28;26;
80396;PMS5003;69721;55.894;-3.052;2024-03-06T04:51:43;19;15;
80396;PMS5003;69721;55.894;-3.052;2024-03-06T04:54:08;24;20;
80396;PMS5003;69721;55.894;-3.052;2024-03-06T04:56:34;27;25;
80396;PMS5003;69721;55.894;-3.052;2024-03-06T04:59:00;28;23;
80396;PMS5003;69721;55.894;-3.052;2024-03-06T05:01:25;26;22;
80396;PMS5003;69721;55.894;-3.052;2024-03-06T05:03:51;25;23;
80396;PMS5003;69721;55.894;-3.052;2024-03-06T05:06:16;26;21;
80396;PMS5003;69721;55.894;-3.052;2024-03-06T05:08:41;22;20;
80396;PMS5003;69721;55.894;-3.052;2024-03-06T05:11:07;26;22;
80396;PMS5003;69721;55.894;-3.052;2024-03-06T05:13:32;24;22;
80396;PMS5003;69721;55.894;-3.052;2024-03-06T05:15:57;29;26;
80396;PMS5003;69721;55.894;-3.052;2024-03-06T05:18:23;31;23;
80396;PMS5003;69721;55.894;-3.052;2024-03-06T05:20:48;30;26;
80396;PMS5003;69721;55.894;-3.052;2024-03-06T05:23:14;35;25;
80396;PMS5003;69721;55.894;-3.052;2024-03-06T05:25:39;34;32;
80396;PMS5003;69721;55.894;-3.052;2024-03-06T05:28:05;27;25;
80396;PMS5003;69721;55.894;-3.052;2024-03-06T05:30:30;23;22;
80396;PMS5003;69721;55.894;-3.052;2024-03-06T05:32:55;26;25;
80396;PMS5003;69721;55.894;-3.052;2024-03-06T05:35:21;24;21;
80396;PMS5003;69721;55.894;-3.052;2024-03-06T05:37:46;27;23;
80396;PMS5003;69721;55.894;-3.052;2024-03-06T05:40:12;30;28;
80396;PMS5003;69721;55.894;-3.052;2024-03-06T05:42:37;30;22;
80396;PMS5003;69721;55.894;-3.052;2024-03-06T05:45:03;26;21;
80396;PMS5003;69721;55.894;-3.052;2024-03-06T05:47:28;24;22;
80396;PMS5003;69721;55.894;-3.052;2024-03-06T05:49:54;28;24;
80396;PMS5003;69721;55.894;-3.052;2024-03-06T05:52:20;26;22;
80396;PMS5003;69721;55.894;-3.052;2024-03-06T05:54:45;30;25;
80396;PMS5003;69721;55.894;-3.052;2024-03-06T05:57:11;19;15;
80396;PMS5003;69721;55.894;-3.052;2024-03-06T06:02:02;28;23;
80396;PMS5003;69721;55.894;-3.052;2024-03-06T06:04:28;22;21;
80396;PMS5003;69721;55.894;-3.052;2024-03-06T06:06:53;15;15;
80396;PMS5003;69721;55.894;-3.052;2024-03-06T06:09:19;26;24;
80396;PMS5003;69721;55.894;-3.052;2024-03-06T06:11:44;28;26;
80396;PMS5003;69721;55.894;-3.052;2024-03-06T06:14:09;28;25;
80396;PMS5003;69721;55.894;-3.052;2024-03-06T06:16:36;26;26;
80396;PMS5003;69721;55.894;-3.052;2024-03-06T06:19:02;33;29;
80396;PMS5003;69721;55.894;-3.052;2024-03-06T06:21:27;26;23;
80396;PMS5003;69721;55.894;-3.052;2024-03-06T06:23:52;27;26;
80396;PMS5003;69721;55.894;-3.052;2024-03-06T06:26:24;24;22;
80396;PMS5003;69721;55.894;-3.052;2024-03-06T06:28:45;29;24;
80396;PMS5003;69721;55.894;-3.052;2024-03-06T06:31:09;32;30;
80396;PMS5003;69721;55.894;-3.052;2024-03-06T06:33:35;20;19;
80396;PMS5003;69721;55.894;-3.052;2024-03-06T06:36:00;38;31;
80396;PMS5003;69721;55.894;-3.052;2024-03-06T06:38:25;31;26;
80396;PMS5003;69721;55.894;-3.052;2024-03-06T06:40:51;28;26;
80396;PMS5003;69721;55.894;-3.052;2024-03-06T06:43:16;24;23;
80396;PMS5003;69721;55.894;-3.052;2024-03-06T06:45:41;33;27;
80396;PMS5003;69721;55.894;-3.052;2024-03-06T06:48:07;32;26;
80396;PMS5003;69721;55.894;-3.052;2024-03-06T06:50:32;31;25;
80396;PMS5003;69721;55.894;-3.052;2024-03-06T06:52:58;19;19;
80396;PMS5003;69721;55.894;-3.052;2024-03-06T06:55:24;28;25;
80396;PMS5003;69721;55.894;-3.052;2024-03-06T06:57:49;57;46;
80396;PMS5003;69721;55.894;-3.052;2024-03-06T07:00:15;61;48;
80396;PMS5003;69721;55.894;-3.052;2024-03-06T07:02:40;48;36;
80396;PMS5003;69721;55.894;-3.052;2024-03-06T07:05:06;40;33;
80396;PMS5003;69721;55.894;-3.052;2024-03-06T07:07:31;34;29;
80396;PMS5003;69721;55.894;-3.052;2024-03-06T07:12:23;36;27;
80396;PMS5003;69721;55.894;-3.052;2024-03-06T07:14:48;33;27;
80396;PMS5003;69721;55.894;-3.052;2024-03-06T07:17:15;26;24;
80396;PMS5003;69721;55.894;-3.052;2024-03-06T07:19:40;27;23;
80396;PMS5003;69721;55.894;-3.052;2024-03-06T07:22:06;36;30;
80396;PMS5003;69721;55.894;-3.052;2024-03-06T07:24:31;29;28;
80396;PMS5003;69721;55.894;-3.052;2024-03-06T07:26:57;31;27;
80396;PMS5003;69721;55.894;-3.052;2024-03-06T07:29:23;27;25;
80396;PMS5003;69721;55.894;-3.052;2024-03-06T07:31:48;36;27;
80396;PMS5003;69721;55.894;-3.052;2024-03-06T07:34:14;34;32;
80396;PMS5003;69721;55.894;-3.052;2024-03-06T07:36:39;31;27;
80396;PMS5003;69721;55.894;-3.052;2024-03-06T07:39:05;30;28;
80396;PMS5003;69721;55.894;-3.052;2024-03-06T07:41:30;35;28;
80396;PMS5003;69721;55.894;-3.052;2024-03-06T07:43:56;33;28;
80396;PMS5003;69721;55.894;-3.052;2024-03-06T07:46:23;26;24;
80396;PMS5003;69721;55.894;-3.052;2024-03-06T07:48:48;27;24;
80396;PMS5003;69721;55.894;-3.052;2024-03-06T07:51:13;34;29;
80396;PMS5003;69721;55.894;-3.052;2024-03-06T07:53:39;29;24;
80396;PMS5003;69721;55.894;-3.052;2024-03-06T07:56:05;31;28;
80396;PMS5003;69721;55.894;-3.052;2024-03-06T07:58:30;29;26;
80396;PMS5003;69721;55.894;-3.052;2024-03-06T08:00:55;35;32;
80396;PMS5003;69721;55.894;-3.052;2024-03-06T08:03:21;37;34;
80396;PMS5003;69721;55.894;-3.052;2024-03-06T08:05:47;32;25;
80396;PMS5003;69721;55.894;-3.052;2024-03-06T08:08:12;29;27;
80396;PMS5003;69721;55.894;-3.052;2024-03-06T08:10:37;33;28;
80396;PMS5003;69721;55.894;-3.052;2024-03-06T08:13:02;30;26;
80396;PMS5003;69721;55.894;-3.052;2024-03-06T08:15:27;30;24;
80396;PMS5003;69721;55.894;-3.052;2024-03-06T08:17:54;22;22;
80396;PMS5003;69721;55.894;-3.052;2024-03-06T08:22:44;32;29;
80396;PMS5003;69721;55.894;-3.052;2024-03-06T08:25:10;31;28;
80396;PMS5003;69721;55.894;-3.052;2024-03-06T08:27:35;28;26;
80396;PMS5003;69721;55.894;-3.052;2024-03-06T08:30:00;26;22;
80396;PMS5003;69721;55.894;-3.052;2024-03-06T08:32:26;30;28;
80396;PMS5003;69721;55.894;-3.052;2024-03-06T08:34:51;30;26;
80396;PMS5003;69721;55.894;-3.052;2024-03-06T08:37:17;33;31;
80396;PMS5003;69721;55.894;-3.052;2024-03-06T08:39:42;34;31;
80396;PMS5003;69721;55.894;-3.052;2024-03-06T08:42:07;30;25;
80396;PMS5003;69721;55.894;-3.052;2024-03-06T08:44:33;30;25;
80396;PMS5003;69721;55.894;-3.052;2024-03-06T08:46:58;33;28;
80396;PMS5003;69721;55.894;-3.052;2024-03-06T08:49:23;36;31;
80396;PMS5003;69721;55.894;-3.052;2024-03-06T08:51:49;35;30;
80396;PMS5003;69721;55.894;-3.052;2024-03-06T08:54:15;35;32;
80396;PMS5003;69721;55.894;-3.052;2024-03-06T08:56:42;36;31;
80396;PMS5003;69721;55.894;-3.052;2024-03-06T08:59:06;32;28;
80396;PMS5003;69721;55.894;-3.052;2024-03-06T09:01:31;28;25;
80396;PMS5003;69721;55.894;-3.052;2024-03-06T09:03:57;36;27;
80396;PMS5003;69721;55.894;-3.052;2024-03-06T09:06:23;31;26;
80396;PMS5003;69721;55.894;-3.052;2024-03-06T09:08:48;32;30;
80396;PMS5003;69721;55.894;-3.052;2024-03-06T09:11:14;25;24;
80396;PMS5003;69721;55.894;-3.052;2024-03-06T09:13:40;28;26;
80396;PMS5003;69721;55.894;-3.052;2024-03-06T09:16:06;31;25;
80396;PMS5003;69721;55.894;-3.052;2024-03-06T09:18:31;29;27;
80396;PMS5003;69721;55.894;-3.052;2024-03-06T09:20:56;31;28;
80396;PMS5003;69721;55.894;-3.052;2024-03-06T09:23:22;33;30;
80396;PMS5003;69721;55.894;-3.052;2024-03-06T09:25:48;30;28;
80396;PMS5003;69721;55.894;-3.052;2024-03-06T09:28:14;31;25;
80396;PMS5003;69721;55.894;-3.052;2024-03-06T09:33:05;34;31;
80396;PMS5003;69721;55.894;-3.052;2024-03-06T09:35:30;27;25;
80396;PMS5003;69721;55.894;-3.052;2024-03-06T09:37:56;28;28;
80396;PMS5003;69721;55.894;-3.052;2024-03-06T09:40:22;29;27;
80396;PMS5003;69721;55.894;-3.052;2024-03-06T09:42:48;32;28;
80396;PMS5003;69721;55.894;-3.052;2024-03-06T09:45:13;24;19;
80396;PMS5003;69721;55.894;-3.052;2024-03-06T09:47:39;21;21;
80396;PMS5003;69721;55.894;-3.052;2024-03-06T09:50:04;26;24;
80396;PMS5003;69721;55.894;-3.052;2024-03-06T09:52:29;25;24;
80396;PMS5003;69721;55.894;-3.052;2024-03-06T09:54:55;23;20;
80396;PMS5003;69721;55.894;-3.052;2024-03-06T09:57:22;22;22;
80396;PMS5003;69721;55.894;-3.052;2024-03-06T09:59:47;19;18;
80396;PMS5003;69721;55.894;-3.052;2024-03-06T10:02:18;25;20;
80396;PMS5003;69721;55.894;-3.052;2024-03-06T10:04:38;27;25;
80396;PMS5003;69721;55.894;-3.052;2024-03-06T10:07:04;24;18;
80396;PMS5003;69721;55.894;-3.052;2024-03-06T10:09:30;24;21;
80396;PMS5003;69721;55.894;-3.052;2024-03-06T10:11:54;19;19;
80396;PMS5003;69721;55.894;-3.052;2024-03-06T10:14:19;24;20;
80396;PMS5003;69721;55.894;-3.052;2024-03-06T10:16:52;22;19;
80396;PMS5003;69721;55.894;-3.052;2024-03-06T10:19:15;23;22;
80396;PMS5003;69721;55.894;-3.052;2024-03-06T10:21:37;29;25;
80396;PMS5003;69721;55.894;-3.052;2024-03-06T10:24:02;28;22;
80396;PMS5003;69721;55.894;-3.052;2024-03-06T10:26:30;21;19;
80396;PMS5003;69721;55.894;-3.052;2024-03-06T10:28:53;18;18;
80396;PMS5003;69721;55.894;-3.052;2024-03-06T10:33:45;26;23;
80396;PMS5003;69721;55.894;-3.052;2024-03-06T10:36:10;25;21;
80396;PMS5003;69721;55.894;-3.052;2024-03-06T10:38:35;21;20;
80396;PMS5003;69721;55.894;-3.052;2024-03-06T10:43:26;27;21;
80396;PMS5003;69721;55.894;-3.052;2024-03-06T10:45:55;24;21;
80396;PMS5003;69721;55.894;-3.052;2024-03-06T10:48:18;24;22;
80396;PMS5003;69721;55.894;-3.052;2024-03-06T10:50:42;28;25;
80396;PMS5003;69721;55.894;-3.052;2024-03-06T10:53:08;21;19;
80396;PMS5003;69721;55.894;-3.052;2024-03-06T10:55:33;28;23;
80396;PMS5003;69721;55.894;-3.052;2024-03-06T10:57:58;25;25;
80396;PMS5003;69721;55.894;-3.052;2024-03-06T11:00:24;28;23;
80396;PMS5003;69721;55.894;-3.052;2024-03-06T11:02:49;21;19;
80396;PMS5003;69721;55.894;-3.052;2024-03-06T11:05:15;23;21;
80396;PMS5003;69721;55.894;-3.052;2024-03-06T11:07:40;18;18;
80396;PMS5003;69721;55.894;-3.052;2024-03-06T11:10:06;18;14;
80396;PMS5003;69721;55.894;-3.052;2024-03-06T11:12:32;21;20;
80396;PMS5003;69721;55.894;-3.052;2024-03-06T11:14:57;23;20;
80396;PMS5003;69721;55.894;-3.052;2024-03-06T11:17:25;22;21;
80396;PMS5003;69721;55.894;-3.052;2024-03-06T11:22:14;19;17;
80396;PMS5003;69721;55.894;-3.052;2024-03-06T11:24:39;28;21;
80396;PMS5003;69721;55.894;-3.052;2024-03-06T11:27:05;21;16;
80396;PMS5003;69721;55.894;-3.052;2024-03-06T11:31:59;15;14;
80396;PMS5003;69721;55.894;-3.052;2024-03-06T11:34:22;20;18;
80396;PMS5003;69721;55.894;-3.052;2024-03-06T11:36:47;21;20;
80396;PMS5003;69721;55.894;-3.052;2024-03-06T11:39:13;21;17;
80396;PMS5003;69721;55.894;-3.052;2024-03-06T11:44:05;25;25;
80396;PMS5003;69721;55.894;-3.052;2024-03-06T11:48:55;49;43;
80396;PMS5003;69721;55.894;-3.052;2024-03-06T11:53:49;18;16;
80396;PMS5003;69721;55.894;-3.052;2024-03-06T11:56:12;40;33;
80396;PMS5003;69721;55.894;-3.052;2024-03-06T11:58:37;10;10;
80396;PMS5003;69721;55.894;-3.052;2024-03-06T12:01:03;9;8;
80396;PMS5003;69721;55.894;-3.052;2024-03-06T12:03:29;15;10;
80396;PMS5003;69721;55.894;-3.052;2024-03-06T12:05:54;11;8;
80396;PMS5003;69721;55.894;-3.052;2024-03-06T12:08:20;10;8;
80396;PMS5003;69721;55.894;-3.052;2024-03-06T12:10:45;10;10;
80396;PMS5003;69721;55.894;-3.052;2024-03-06T12:13:10;18;18;
80396;PMS5003;69721;55.894;-3.052;2024-03-06T12:15:35;9;9;
80396;PMS5003;69721;55.894;-3.052;2024-03-06T12:18:01;7;6;
80396;PMS5003;69721;55.894;-3.052;2024-03-06T12:20:27;8;6;
80396;PMS5003;69721;55.894;-3.052;2024-03-06T12:22:52;9;9;
80396;PMS5003;69721;55.894;-3.052;2024-03-06T12:25:19;9;9;
80396;PMS5003;69721;55.894;-3.052;2024-03-06T12:27:44;10;10;
80396;PMS5003;69721;55.894;-3.052;2024-03-06T12:30:25;4;4;
80396;PMS5003;69721;55.894;-3.052;2024-03-06T12:32:56;11;10;
80396;PMS5003;69721;55.894;-3.052;2024-03-06T12:37:41;16;12;
80396;PMS5003;69721;55.894;-3.052;2024-03-06T12:40:08;11;10;
80396;PMS5003;69721;55.894;-3.052;2024-03-06T12:42:33;15;14;
80396;PMS5003;69721;55.894;-3.052;2024-03-06T12:44:59;14;14;
80396;PMS5003;69721;55.894;-3.052;2024-03-06T12:47:24;12;11;
80396;PMS5003;69721;55.894;-3.052;2024-03-06T12:49:49;19;15;
80396;PMS5003;69721;55.894;-3.052;2024-03-06T12:52:15;28;23;
80396;PMS5003;69721;55.894;-3.052;2024-03-06T12:54:40;18;15;
80396;PMS5003;69721;55.894;-3.052;2024-03-06T12:57:06;25;19;
80396;PMS5003;69721;55.894;-3.052;2024-03-06T12:59:31;29;24;
80396;PMS5003;69721;55.894;-3.052;2024-03-06T13:02:02;27;22;
80396;PMS5003;69721;55.894;-3.052;2024-03-06T13:04:22;17;14;
80396;PMS5003;69721;55.894;-3.052;2024-03-06T13:06:47;14;13;
80396;PMS5003;69721;55.894;-3.052;2024-03-06T13:09:14;18;18;
80396;PMS5003;69721;55.894;-3.052;2024-03-06T13:11:39;22;19;
80396;PMS5003;69721;55.894;-3.052;2024-03-06T13:14:04;19;14;
80396;PMS5003;69721;55.894;-3.052;2024-03-06T13:16:30;17;15;
80396;PMS5003;69721;55.894;-3.052;2024-03-06T13:18:55;17;17;
80396;PMS5003;69721;55.894;-3.052;2024-03-06T13:21:25;18;18;
80396;PMS5003;69721;55.894;-3.052;2024-03-06T13:23:46;24;21;
80396;PMS5003;69721;55.894;-3.052;2024-03-06T13:26:12;23;18;
80396;PMS5003;69721;55.894;-3.052;2024-03-06T13:28:38;15;15;
80396;PMS5003;69721;55.894;-3.052;2024-03-06T13:31:04;25;22;
80396;PMS5003;69721;55.894;-3.052;2024-03-06T13:33:30;31;25;
80396;PMS5003;69721;55.894;-3.052;2024-03-06T13:35:55;24;22;
80396;PMS5003;69721;55.894;-3.052;2024-03-06T13:38:21;22;19;
80396;PMS5003;69721;55.894;-3.052;2024-03-06T13:40:46;22;22;
80396;PMS5003;69721;55.894;-3.052;2024-03-06T13:43:12;29;22;
80396;PMS5003;69721;55.894;-3.052;2024-03-06T13:45:37;18;16;
80396;PMS5003;69721;55.894;-3.052;2024-03-06T13:48:03;21;20;
80396;PMS5003;69721;55.894;-3.052;2024-03-06T13:50:29;17;17;
80396;PMS5003;69721;55.894;-3.052;2024-03-06T13:52:54;20;17;
80396;PMS5003;69721;55.894;-3.052;2024-03-06T13:55:20;18;14;
80396;PMS5003;69721;55.894;-3.052;2024-03-06T13:57:46;16;13;
80396;PMS5003;69721;55.894;-3.052;2024-03-06T14:00:11;14;14;
80396;PMS5003;69721;55.894;-3.052;2024-03-06T14:02:36;16;15;
80396;PMS5003;69721;55.894;-3.052;2024-03-06T14:05:02;24;17;
80396;PMS5003;69721;55.894;-3.052;2024-03-06T14:07:27;23;22;
80396;PMS5003;69721;55.894;-3.052;2024-03-06T14:12:18;12;10;
80396;PMS5003;69721;55.894;-3.052;2024-03-06T14:14:43;21;18;
80396;PMS5003;69721;55.894;-3.052;2024-03-06T14:17:08;12;12;
80396;PMS5003;69721;55.894;-3.052;2024-03-06T14:19:34;21;12;
80396;PMS5003;69721;55.894;-3.052;2024-03-06T14:21:59;16;16;
80396;PMS5003;69721;55.894;-3.052;2024-03-06T14:24:25;20;16;
80396;PMS5003;69721;55.894;-3.052;2024-03-06T14:26:50;20;20;
80396;PMS5003;69721;55.894;-3.052;2024-03-06T14:29:16;17;17;
80396;PMS5003;69721;55.894;-3.052;2024-03-06T14:31:42;25;21;
80396;PMS5003;69721;55.894;-3.052;2024-03-06T14:34:07;19;16;
80396;PMS5003;69721;55.894;-3.052;2024-03-06T14:36:35;24;24;
80396;PMS5003;69721;55.894;-3.052;2024-03-06T14:39:00;17;14;
80396;PMS5003;69721;55.894;-3.052;2024-03-06T14:41:26;25;22;
80396;PMS5003;69721;55.894;-3.052;2024-03-06T14:43:51;41;34;
80396;PMS5003;69721;55.894;-3.052;2024-03-06T14:47:17;17;17;
80396;PMS5003;69721;55.894;-3.052;2024-03-06T14:49:43;26;23;
80396;PMS5003;69721;55.894;-3.052;2024-03-06T14:52:08;19;16;
80396;PMS5003;69721;55.894;-3.052;2024-03-06T14:54:34;27;24;
80396;PMS5003;69721;55.894;-3.052;2024-03-06T14:57:00;33;26;
80396;PMS5003;69721;55.894;-3.052;2024-03-06T14:59:25;24;22;
80396;PMS5003;69721;55.894;-3.052;2024-03-06T15:01:50;22;17;
80396;PMS5003;69721;55.894;-3.052;2024-03-06T15:04:15;20;18;
80396;PMS5003;69721;55.894;-3.052;2024-03-06T15:06:41;18;16;
80396;PMS5003;69721;55.894;-3.052;2024-03-06T15:09:07;24;19;
80396;PMS5003;69721;55.894;-3.052;2024-03-06T15:11:32;20;18;
80396;PMS5003;69721;55.894;-3.052;2024-03-06T15:13:57;26;23;
80396;PMS5003;69721;55.894;-3.052;2024-03-06T15:16:23;23;19;
80396;PMS5003;69721;55.894;-3.052;2024-03-06T15:18:49;25;20;
80396;PMS5003;69721;55.894;-3.052;2024-03-06T15:23:40;19;18;
80396;PMS5003;69721;55.894;-3.052;2024-03-06T15:26:06;24;21;
80396;PMS5003;69721;55.894;-3.052;2024-03-06T15:28:31;28;20;
80396;PMS5003;69721;55.894;-3.052;2024-03-06T15:30:58;20;18;
80396;PMS5003;69721;55.894;-3.052;2024-03-06T15:33:23;20;16;
80396;PMS5003;69721;55.894;-3.052;2024-03-06T15:35:49;25;20;
80396;PMS5003;69721;55.894;-3.052;2024-03-06T15:38:15;24;22;
80396;PMS5003;69721;55.894;-3.052;2024-03-06T15:40:41;22;18;
80396;PMS5003;69721;55.894;-3.052;2024-03-06T15:43:06;23;23;
80396;PMS5003;69721;55.894;-3.052;2024-03-06T15:45:31;22;20;
80396;PMS5003;69721;55.894;-3.052;2024-03-06T15:47:57;13;13;
80396;PMS5003;69721;55.894;-3.052;2024-03-06T15:50:23;23;16;
80396;PMS5003;69721;55.894;-3.052;2024-03-06T15:52:48;21;21;
80396;PMS5003;69721;55.894;-3.052;2024-03-06T15:55:34;12;12;
80396;PMS5003;69721;55.894;-3.052;2024-03-06T15:58:00;23;20;
80396;PMS5003;69721;55.894;-3.052;2024-03-06T16:00:26;27;21;
80396;PMS5003;69721;55.894;-3.052;2024-03-06T16:02:51;25;23;
80396;PMS5003;69721;55.894;-3.052;2024-03-06T16:05:22;29;25;
80396;PMS5003;69721;55.894;-3.052;2024-03-06T16:07:43;24;21;
80396;PMS5003;69721;55.894;-3.052;2024-03-06T16:10:08;18;18;
80396;PMS5003;69721;55.894;-3.052;2024-03-06T16:13:08;16;16;
80396;PMS5003;69721;55.894;-3.052;2024-03-06T16:15:33;23;20;
80396;PMS5003;69721;55.894;-3.052;2024-03-06T16:17:59;26;23;
80396;PMS5003;69721;55.894;-3.052;2024-03-06T16:20:24;26;23;
80396;PMS5003;69721;55.894;-3.052;2024-03-06T16:22:49;18;18;
80396;PMS5003;69721;55.894;-3.052;2024-03-06T16:25:15;34;31;
80396;PMS5003;69721;55.894;-3.052;2024-03-06T16:27:40;28;21;
80396;PMS5003;69721;55.894;-3.052;2024-03-06T16:30:06;27;23;